^^
Daily Summary for July 13, 2021 Units:  English    Metric   Both
Daily Weekly Monthly Yearly Custom
  High: Low: Average:
Temperature: 99.0 °F 63.0 °F 80.2 °F
Dew Point: 53.0 °F 37.0 °F 47.1 °F
Humidity: 59% 14% 34%
Wind Speed: 20mph 0mph 4.4mph
Wind Gust: 20mph - -
Wind- - South
Pressure: 29.9 in 29.8 in -
Precipitation: 0.000 in    
Historical Graphs
 
 
Tabular Data for July 13, 2021
Time Temperature Dew Point Pressure Wind Wind Speed Wind Gust Humidity Rainfall Rate (Hourly) solar
00:04 73.0 °F 50.0 °F 29.8 in Calm     44% 0.000 in 0.00 W/m2
00:09 73.0 °F 49.0 °F 29.8 in Calm     44% 0.000 in 0.00 W/m2
00:14 72.0 °F 49.0 °F 29.8 in Calm     44% 0.000 in 0.00 W/m2
00:19 72.0 °F 49.0 °F 29.8 in Calm     44% 0.000 in 0.00 W/m2
00:24 72.0 °F 49.0 °F 29.8 in Calm     44% 0.000 in 0.00 W/m2
00:29 72.0 °F 49.0 °F 29.8 in Calm     44% 0.000 in 0.00 W/m2
00:34 71.0 °F 49.0 °F 29.8 in Calm     45% 0.000 in 0.00 W/m2
00:39 71.0 °F 49.0 °F 29.8 in Calm     45% 0.000 in 0.00 W/m2
00:44 71.0 °F 49.0 °F 29.8 in Calm     45% 0.000 in 0.00 W/m2
00:49 71.0 °F 49.0 °F 29.8 in Calm     46% 0.000 in 0.00 W/m2
00:54 71.0 °F 49.0 °F 29.8 in Calm     46% 0.000 in 0.00 W/m2
00:59 71.0 °F 49.0 °F 29.8 in Calm     46% 0.000 in 0.00 W/m2
01:04 71.0 °F 49.0 °F 29.8 in Calm     46% 0.000 in 0.00 W/m2
01:09 70.0 °F 47.0 °F 29.8 in Calm     44% 0.000 in 0.00 W/m2
01:14 70.0 °F 45.0 °F 29.8 in Calm     41% 0.000 in 0.00 W/m2
01:19 70.0 °F 44.0 °F 29.8 in Calm     39% 0.000 in 0.00 W/m2
01:24 70.0 °F 43.0 °F 29.8 in Calm     38% 0.000 in 0.00 W/m2
01:29 70.0 °F 42.0 °F 29.8 in ESE 2 mph   36% 0.000 in 0.00 W/m2
01:34 70.0 °F 41.0 °F 29.8 in Calm   2 mph 36% 0.000 in 0.00 W/m2
01:39 70.0 °F 43.0 °F 29.8 in Calm     38% 0.000 in 0.00 W/m2
01:44 70.0 °F 43.0 °F 29.8 in Calm     39% 0.000 in 0.00 W/m2
01:49 70.0 °F 43.0 °F 29.8 in Calm     39% 0.000 in 0.00 W/m2
01:54 70.0 °F 43.0 °F 29.8 in Calm     38% 0.000 in 0.00 W/m2
01:59 70.0 °F 44.0 °F 29.8 in Calm     39% 0.000 in 0.00 W/m2
02:04 70.0 °F 44.0 °F 29.8 in Calm     39% 0.000 in 0.00 W/m2
02:09 70.0 °F 43.0 °F 29.8 in Calm     38% 0.000 in 0.00 W/m2
02:14 70.0 °F 41.0 °F 29.8 in Calm     35% 0.000 in 0.00 W/m2
02:19 70.0 °F 41.0 °F 29.8 in Calm     35% 0.000 in 0.00 W/m2
02:24 70.0 °F 40.0 °F 29.8 in Calm     34% 0.000 in 0.00 W/m2
02:29 70.0 °F 40.0 °F 29.8 in Calm     33% 0.000 in 0.00 W/m2
02:34 70.0 °F 40.0 °F 29.8 in Calm     34% 0.000 in 0.00 W/m2
02:39 70.0 °F 40.0 °F 29.8 in Calm     34% 0.000 in 0.00 W/m2
02:44 70.0 °F 40.0 °F 29.8 in Calm     34% 0.000 in 0.00 W/m2
02:49 70.0 °F 39.0 °F 29.8 in Calm     33% 0.000 in 0.00 W/m2
02:54 70.0 °F 39.0 °F 29.8 in Calm     33% 0.000 in 0.00 W/m2
02:59 70.0 °F 39.0 °F 29.8 in Calm     33% 0.000 in 0.00 W/m2
03:04 70.0 °F 39.0 °F 29.8 in Calm     33% 0.000 in 0.00 W/m2
03:09 70.0 °F 38.0 °F 29.8 in Calm     32% 0.000 in 0.00 W/m2
03:14 69.0 °F 38.0 °F 29.8 in Calm     32% 0.000 in 0.00 W/m2
03:19 69.0 °F 38.0 °F 29.8 in Calm     32% 0.000 in 0.00 W/m2
03:24 69.0 °F 38.0 °F 29.8 in Calm     32% 0.000 in 0.00 W/m2
03:29 69.0 °F 38.0 °F 29.8 in Calm     32% 0.000 in 0.00 W/m2
03:34 69.0 °F 38.0 °F 29.8 in Calm     32% 0.000 in 0.00 W/m2
03:39 69.0 °F 38.0 °F 29.8 in Calm     32% 0.000 in 0.00 W/m2
03:44 69.0 °F 37.0 °F 29.8 in Calm     31% 0.000 in 0.00 W/m2
03:49 69.0 °F 37.0 °F 29.8 in Calm     31% 0.000 in 0.00 W/m2
03:54 69.0 °F 37.0 °F 29.8 in Calm     31% 0.000 in 0.00 W/m2
03:59 69.0 °F 37.0 °F 29.8 in Calm     31% 0.000 in 0.00 W/m2
04:04 69.0 °F 37.0 °F 29.8 in Calm     31% 0.000 in 0.00 W/m2
04:09 69.0 °F 37.0 °F 29.8 in Calm     31% 0.000 in 0.00 W/m2
04:14 69.0 °F 37.0 °F 29.8 in Calm     31% 0.000 in 0.00 W/m2
04:19 69.0 °F 37.0 °F 29.8 in Calm     31% 0.000 in 0.00 W/m2
04:24 69.0 °F 37.0 °F 29.8 in Calm     31% 0.000 in 0.00 W/m2
04:29 69.0 °F 39.0 °F 29.8 in Calm     34% 0.000 in 0.00 W/m2
04:34 69.0 °F 40.0 °F 29.8 in Calm     35% 0.000 in 0.00 W/m2
04:39 69.0 °F 39.0 °F 29.8 in Calm     34% 0.000 in 0.00 W/m2
04:44 69.0 °F 43.0 °F 29.8 in ESE 4 mph 1 mph 40% 0.000 in 0.00 W/m2
04:49 69.0 °F 45.0 °F 29.8 in ESE 2 mph 3 mph 43% 0.000 in 0.00 W/m2
04:54 68.0 °F 46.0 °F 29.8 in ESE 4 mph 2 mph 45% 0.000 in 0.00 W/m2
04:59 68.0 °F 46.0 °F 29.8 in ESE 2 mph 3 mph 46% 0.000 in 0.00 W/m2
05:04 68.0 °F 47.0 °F 29.8 in ESE 2 mph 2 mph 47% 0.000 in 0.00 W/m2
05:09 68.0 °F 47.0 °F 29.8 in Calm   2 mph 47% 0.000 in 0.00 W/m2
05:14 67.0 °F 47.0 °F 29.8 in Calm     48% 0.000 in 0.00 W/m2
05:19 67.0 °F 47.0 °F 29.8 in Calm     48% 0.000 in 0.00 W/m2
05:23 67.0 °F 47.0 °F 29.8 in Calm     49% 0.000 in 0.00 W/m2
05:29 66.0 °F 47.0 °F 29.8 in Calm     49% 0.000 in 0.00 W/m2
05:34 66.0 °F 47.0 °F 29.8 in Calm     50% 0.000 in 0.00 W/m2
05:39 66.0 °F 47.0 °F 29.8 in Calm     50% 0.000 in 0.00 W/m2
05:44 66.0 °F 47.0 °F 29.8 in Calm     51% 0.000 in 0.00 W/m2
05:49 65.0 °F 47.0 °F 29.8 in Calm     51% 0.000 in 0.00 W/m2
05:54 65.0 °F 46.0 °F 29.8 in Calm     51% 0.000 in 0.00 W/m2
05:59 65.0 °F 46.0 °F 29.8 in Calm     51% 0.000 in 0.00 W/m2
06:04 65.0 °F 46.0 °F 29.9 in Calm     51% 0.000 in 0.00 W/m2
06:09 65.0 °F 46.0 °F 29.9 in Calm     52% 0.000 in 5.00 W/m2
06:14 64.0 °F 47.0 °F 29.9 in Calm     53% 0.000 in 7.00 W/m2
06:19 64.0 °F 47.0 °F 29.9 in Calm     53% 0.000 in 9.00 W/m2
06:24 64.0 °F 47.0 °F 29.9 in Calm     53% 0.000 in 11.00 W/m2
06:29 64.0 °F 47.0 °F 29.9 in Calm     54% 0.000 in 12.00 W/m2
06:34 64.0 °F 47.0 °F 29.9 in Calm     55% 0.000 in 12.00 W/m2
06:39 64.0 °F 47.0 °F 29.9 in Calm     55% 0.000 in 14.00 W/m2
06:44 63.0 °F 47.0 °F 29.9 in Calm     55% 0.000 in 16.00 W/m2
06:49 63.0 °F 47.0 °F 29.9 in Calm     55% 0.000 in 18.00 W/m2
06:54 63.0 °F 47.0 °F 29.9 in Calm     56% 0.000 in 18.00 W/m2
06:59 63.0 °F 47.0 °F 29.9 in Calm     56% 0.000 in 19.00 W/m2
07:04 63.0 °F 48.0 °F 29.9 in Calm     57% 0.000 in 21.00 W/m2
07:08 63.0 °F 48.0 °F 29.9 in Calm     58% 0.000 in 21.00 W/m2
07:14 63.0 °F 48.0 °F 29.9 in Calm     58% 0.000 in 23.00 W/m2
07:19 63.0 °F 48.0 °F 29.9 in Calm     58% 0.000 in 25.00 W/m2
07:24 63.0 °F 48.0 °F 29.9 in Calm     59% 0.000 in 26.00 W/m2
07:29 63.0 °F 49.0 °F 29.9 in Calm     59% 0.000 in 26.00 W/m2
07:34 63.0 °F 49.0 °F 29.9 in Calm     59% 0.000 in 28.00 W/m2
07:39 63.0 °F 48.0 °F 29.9 in Calm     58% 0.000 in 30.00 W/m2
07:44 63.0 °F 48.0 °F 29.9 in Calm     57% 0.000 in 32.00 W/m2
07:49 64.0 °F 48.0 °F 29.9 in Calm     57% 0.000 in 33.00 W/m2
07:54 64.0 °F 48.0 °F 29.9 in Calm     57% 0.000 in 35.00 W/m2
07:59 64.0 °F 48.0 °F 29.9 in Calm     56% 0.000 in 37.00 W/m2
08:04 64.0 °F 49.0 °F 29.9 in Calm     57% 0.000 in 39.00 W/m2
08:09 65.0 °F 49.0 °F 29.9 in ESE 2 mph   57% 0.000 in 46.00 W/m2
08:14 66.0 °F 47.0 °F 29.9 in Calm   2 mph 52% 0.000 in 72.00 W/m2
08:19 67.0 °F 47.0 °F 29.9 in Calm     50% 0.000 in 54.00 W/m2
08:24 67.0 °F 49.0 °F 29.9 in Calm     51% 0.000 in 139.00 W/m2
08:29 68.0 °F 49.0 °F 29.9 in ESE 2 mph   51% 0.000 in 130.00 W/m2
08:34 69.0 °F 50.0 °F 29.9 in ESE 2 mph 2 mph 51% 0.000 in 260.00 W/m2
08:39 70.0 °F 50.0 °F 29.9 in Calm   2 mph 51% 0.000 in 260.00 W/m2
08:44 70.0 °F 51.0 °F 29.9 in SE 2 mph 2 mph 50% 0.000 in 485.00 W/m2
08:49 71.0 °F 51.0 °F 29.9 in Calm   2 mph 50% 0.000 in 504.00 W/m2
08:54 72.0 °F 52.0 °F 29.9 in Calm     50% 0.000 in 524.00 W/m2
08:59 72.0 °F 51.0 °F 29.9 in Calm     48% 0.000 in 540.00 W/m2
09:04 74.0 °F 51.0 °F 29.9 in SE 2 mph   46% 0.000 in 555.00 W/m2
09:09 75.0 °F 52.0 °F 29.9 in SE 2 mph 2 mph 46% 0.000 in 566.00 W/m2
09:14 76.0 °F 52.0 °F 29.9 in South 2 mph 2 mph 44% 0.000 in 577.00 W/m2
09:19 77.0 °F 51.0 °F 29.9 in Calm   2 mph 42% 0.000 in 592.00 W/m2
09:24 78.0 °F 51.0 °F 29.9 in South 2 mph   41% 0.000 in 610.00 W/m2
09:29 79.0 °F 52.0 °F 29.9 in SSW 2 mph 2 mph 40% 0.000 in 615.00 W/m2
09:34 80.0 °F 51.0 °F 29.9 in Calm   2 mph 37% 0.000 in 642.00 W/m2
09:39 80.0 °F 51.0 °F 29.9 in SSW 2 mph   37% 0.000 in 647.00 W/m2
09:44 81.0 °F 50.0 °F 29.9 in SSW 2 mph 2 mph 35% 0.000 in 636.00 W/m2
09:49 82.0 °F 49.0 °F 29.9 in SW 4 mph 2 mph 33% 0.000 in 652.00 W/m2
09:54 83.0 °F 47.0 °F 29.9 in SW 7 mph 3 mph 29% 0.000 in 652.00 W/m2
09:59 83.0 °F 47.0 °F 29.9 in WSW 6 mph 7 mph 28% 0.000 in 673.00 W/m2
10:04 84.0 °F 51.0 °F 29.9 in SW 6 mph 6 mph 33% 0.000 in 666.00 W/m2
10:09 84.0 °F 52.0 °F 29.9 in SW 7 mph 7 mph 33% 0.000 in 684.00 W/m2
10:14 84.0 °F 52.0 °F 29.9 in South 2 mph 3 mph 33% 0.000 in 675.00 W/m2
10:19 84.0 °F 52.0 °F 29.9 in SSW 6 mph 6 mph 33% 0.000 in 643.00 W/m2
10:24 84.0 °F 52.0 °F 29.9 in SW 4 mph 6 mph 33% 0.000 in 564.00 W/m2
10:29 84.0 °F 52.0 °F 29.9 in South 2 mph 3 mph 34% 0.000 in 715.00 W/m2
10:34 84.0 °F 52.0 °F 29.9 in SSE 2 mph 2 mph 34% 0.000 in 724.00 W/m2
10:39 84.0 °F 52.0 °F 29.9 in West 2 mph 2 mph 34% 0.000 in 747.00 W/m2
10:44 84.0 °F 52.0 °F 29.9 in SW 4 mph 2 mph 34% 0.000 in 761.00 W/m2
10:49 84.0 °F 52.0 °F 29.9 in SW 9 mph 6 mph 34% 0.000 in 800.00 W/m2
10:54 84.0 °F 52.0 °F 29.9 in WSW 6 mph 9 mph 34% 0.000 in 816.00 W/m2
10:59 84.0 °F 52.0 °F 29.9 in SW 4 mph 3 mph 34% 0.000 in 826.00 W/m2
11:04 84.0 °F 52.0 °F 29.9 in SW 7 mph 4 mph 33% 0.000 in 837.00 W/m2
11:09 85.0 °F 52.0 °F 29.9 in SW 4 mph 7 mph 33% 0.000 in 846.00 W/m2
11:14 85.0 °F 52.0 °F 29.9 in SW 4 mph 3 mph 32% 0.000 in 856.00 W/m2
11:19 85.0 °F 51.0 °F 29.9 in SSW 9 mph 6 mph 31% 0.000 in 860.00 W/m2
11:24 85.0 °F 49.0 °F 29.9 in South 9 mph 9 mph 29% 0.000 in 865.00 W/m2
11:29 86.0 °F 48.0 °F 29.9 in SSW 11 mph 9 mph 27% 0.000 in 860.00 W/m2
11:34 86.0 °F 48.0 °F 29.9 in SW 9 mph 10 mph 27% 0.000 in 854.00 W/m2
11:39 86.0 °F 46.0 °F 29.9 in WSW 7 mph 9 mph 25% 0.000 in 846.00 W/m2
11:43 87.0 °F 48.0 °F 29.9 in SW 5 mph 7 mph 26% 0.000 in 870.00 W/m2
11:49 87.0 °F 48.0 °F 29.9 in SSW 6 mph 6 mph 26% 0.000 in 895.00 W/m2
11:54 87.0 °F 49.0 °F 29.9 in SSW 4 mph 2 mph 27% 0.000 in 919.00 W/m2
11:59 87.0 °F 49.0 °F 29.9 in WSW 7 mph 3 mph 27% 0.000 in 919.00 W/m2
12:04 87.0 °F 48.0 °F 29.9 in SW 7 mph 7 mph 26% 0.000 in 933.00 W/m2
12:09 88.0 °F 49.0 °F 29.9 in SW 7 mph 7 mph 27% 0.000 in 935.00 W/m2
12:14 88.0 °F 49.0 °F 29.9 in SW 9 mph 9 mph 26% 0.000 in 942.00 W/m2
12:19 88.0 °F 49.0 °F 29.9 in WSW 7 mph 7 mph 26% 0.000 in 946.00 W/m2
12:24 88.0 °F 49.0 °F 29.9 in SW 11 mph 7 mph 26% 0.000 in 947.00 W/m2
12:29 88.0 °F 49.0 °F 29.9 in SE 9 mph 10 mph 26% 0.000 in 951.00 W/m2
12:34 89.0 °F 49.0 °F 29.9 in SSE 18 mph 7 mph 26% 0.000 in 956.00 W/m2
12:39 89.0 °F 50.0 °F 29.9 in SSE 17 mph 17 mph 26% 0.000 in 956.00 W/m2
12:44 90.0 °F 50.0 °F 29.9 in SSW 7 mph 16 mph 26% 0.000 in 958.00 W/m2
12:49 90.0 °F 48.0 °F 29.9 in SW 11 mph 7 mph 24% 0.000 in 960.00 W/m2
12:54 90.0 °F 49.0 °F 29.9 in SW 7 mph 10 mph 25% 0.000 in 962.00 W/m2
12:59 90.0 °F 49.0 °F 29.9 in ESE 7 mph 7 mph 24% 0.000 in 962.00 W/m2
13:04 91.0 °F 50.0 °F 29.9 in SSE 9 mph 5 mph 25% 0.000 in 963.00 W/m2
13:09 91.0 °F 49.0 °F 29.9 in East 16 mph 9 mph 24% 0.000 in 965.00 W/m2
13:14 92.0 °F 49.0 °F 29.9 in NE 9 mph 16 mph 23% 0.000 in 963.00 W/m2
13:19 92.0 °F 49.0 °F 29.9 in SW 14 mph 9 mph 23% 0.000 in 960.00 W/m2
13:24 92.0 °F 47.0 °F 29.9 in SSW 10 mph 14 mph 22% 0.000 in 958.00 W/m2
13:29 92.0 °F 49.0 °F 29.9 in SSE 4 mph 7 mph 23% 0.000 in 953.00 W/m2
13:34 92.0 °F 48.0 °F 29.9 in NW 9 mph 9 mph 22% 0.000 in 951.00 W/m2
13:39 93.0 °F 48.0 °F 29.9 in ENE 11 mph 9 mph 22% 0.000 in 949.00 W/m2
13:44 93.0 °F 46.0 °F 29.9 in SW 13 mph 10 mph 20% 0.000 in 949.00 W/m2
13:49 93.0 °F 48.0 °F 29.9 in South 16 mph 13 mph 21% 0.000 in 939.00 W/m2
13:54 93.0 °F 46.0 °F 29.9 in SW 16 mph 16 mph 20% 0.000 in 935.00 W/m2
13:59 94.0 °F 46.0 °F 29.9 in NNE 10 mph 16 mph 20% 0.000 in 932.00 W/m2
14:04 94.0 °F 47.0 °F 29.9 in SSW 6 mph 7 mph 20% 0.000 in 925.00 W/m2
14:09 94.0 °F 47.0 °F 29.9 in South 9 mph 7 mph 20% 0.000 in 916.00 W/m2
14:14 94.0 °F 48.0 °F 29.9 in SW 9 mph 9 mph 21% 0.000 in 914.00 W/m2
14:19 94.0 °F 44.0 °F 29.9 in South 9 mph 9 mph 18% 0.000 in 904.00 W/m2
14:24 95.0 °F 44.0 °F 29.9 in WSW 11 mph 8 mph 18% 0.000 in 896.00 W/m2
14:29 95.0 °F 46.0 °F 29.9 in East 6 mph 10 mph 19% 0.000 in 891.00 W/m2
14:34 95.0 °F 45.0 °F 29.9 in South 9 mph 6 mph 18% 0.000 in 888.00 W/m2
14:39 96.0 °F 39.0 °F 29.9 in ESE 9 mph 9 mph 14% 0.000 in 879.00 W/m2
14:44 96.0 °F 41.0 °F 29.9 in South 13 mph 12 mph 15% 0.000 in 870.00 W/m2
14:49 96.0 °F 41.0 °F 29.9 in South 13 mph 13 mph 15% 0.000 in 863.00 W/m2
14:54 97.0 °F 45.0 °F 29.9 in ENE 4 mph 13 mph 17% 0.000 in 858.00 W/m2
14:59 97.0 °F 43.0 °F 29.9 in SSW 13 mph 7 mph 16% 0.000 in 849.00 W/m2
15:04 98.0 °F 44.0 °F 29.9 in SSE 7 mph 13 mph 16% 0.000 in 838.00 W/m2
15:09 98.0 °F 44.0 °F 29.9 in ENE 7 mph 7 mph 16% 0.000 in 828.00 W/m2
15:14 99.0 °F 46.0 °F 29.9 in South 13 mph 9 mph 17% 0.000 in 821.00 W/m2
15:19 99.0 °F 45.0 °F 29.9 in South 13 mph 13 mph 16% 0.000 in 816.00 W/m2
15:24 99.0 °F 45.0 °F 29.9 in WSW 11 mph 13 mph 16% 0.000 in 800.00 W/m2
15:29 99.0 °F 46.0 °F 29.9 in WSW 14 mph 10 mph 17% 0.000 in 788.00 W/m2
15:34 98.0 °F 46.0 °F 29.9 in SW 19 mph 9 mph 17% 0.000 in 775.00 W/m2
15:39 98.0 °F 47.0 °F 29.9 in SSW 20 mph 20 mph 18% 0.000 in 765.00 W/m2
15:44 98.0 °F 47.0 °F 29.9 in West 7 mph 10 mph 18% 0.000 in 752.00 W/m2
15:49 98.0 °F 47.0 °F 29.9 in SW 7 mph 7 mph 18% 0.000 in 742.00 W/m2
15:54 98.0 °F 47.0 °F 29.9 in SW 7 mph 7 mph 18% 0.000 in 728.00 W/m2
15:59 98.0 °F 51.0 °F 29.9 in ESE 9 mph 7 mph 21% 0.000 in 717.00 W/m2
16:04 98.0 °F 49.0 °F 29.9 in SSW 9 mph 9 mph 19% 0.000 in 705.00 W/m2
16:09 98.0 °F 48.0 °F 29.9 in SW 9 mph 9 mph 19% 0.000 in 691.00 W/m2
16:14 97.0 °F 50.0 °F 29.9 in SSW 9 mph 9 mph 20% 0.000 in 679.00 W/m2
16:19 98.0 °F 50.0 °F 29.9 in East 5 mph 9 mph 20% 0.000 in 664.00 W/m2
16:24 98.0 °F 50.0 °F 29.9 in SSW 11 mph 7 mph 20% 0.000 in 652.00 W/m2
16:29 98.0 °F 49.0 °F 29.9 in SSE 7 mph 10 mph 19% 0.000 in 640.00 W/m2
16:34 98.0 °F 50.0 °F 29.9 in SSW 11 mph 8 mph 20% 0.000 in 626.00 W/m2
16:39 98.0 °F 49.0 °F 29.9 in SSW 9 mph 10 mph 19% 0.000 in 613.00 W/m2
16:44 98.0 °F 50.0 °F 29.9 in East 9 mph 6 mph 20% 0.000 in 599.00 W/m2
16:49 97.0 °F 50.0 °F 29.9 in South 11 mph 9 mph 20% 0.000 in 584.00 W/m2
16:54 97.0 °F 48.0 °F 29.9 in SSE 7 mph 10 mph 19% 0.000 in 566.00 W/m2
16:59 97.0 °F 48.0 °F 29.9 in South 7 mph 7 mph 19% 0.000 in 555.00 W/m2
17:04 97.0 °F 49.0 °F 29.9 in SSW 7 mph 7 mph 20% 0.000 in 538.00 W/m2
17:09 97.0 °F 50.0 °F 29.9 in SSE 11 mph 8 mph 21% 0.000 in 524.00 W/m2
17:14 97.0 °F 48.0 °F 29.9 in SW 9 mph 6 mph 19% 0.000 in 508.00 W/m2
17:19 97.0 °F 50.0 °F 29.9 in SW 7 mph 9 mph 21% 0.000 in 496.00 W/m2
17:23 97.0 °F 50.0 °F 29.9 in SW 16 mph 9 mph 21% 0.000 in 475.00 W/m2
17:29 97.0 °F 51.0 °F 29.9 in SW 6 mph 16 mph 22% 0.000 in 461.00 W/m2
17:34 96.0 °F 50.0 °F 29.9 in SW 6 mph 6 mph 21% 0.000 in 448.00 W/m2
17:39 96.0 °F 51.0 °F 29.9 in SW 6 mph 6 mph 22% 0.000 in 431.00 W/m2
17:44 96.0 °F 51.0 °F 29.9 in SSW 11 mph 7 mph 22% 0.000 in 415.00 W/m2
17:49 96.0 °F 49.0 °F 29.9 in SW 9 mph 10 mph 21% 0.000 in 401.00 W/m2
17:54 95.0 °F 50.0 °F 29.9 in South 9 mph 9 mph 22% 0.000 in 383.00 W/m2
17:59 94.0 °F 51.0 °F 29.9 in SW 9 mph 9 mph 23% 0.000 in 243.00 W/m2
18:04 94.0 °F 51.0 °F 29.9 in SW 7 mph 9 mph 24% 0.000 in 225.00 W/m2
18:09 93.0 °F 50.0 °F 29.9 in WSW 7 mph 7 mph 23% 0.000 in 63.00 W/m2
18:14 92.0 °F 51.0 °F 29.9 in WSW 7 mph 6 mph 25% 0.000 in 53.00 W/m2
18:19 92.0 °F 52.0 °F 29.9 in WSW 16 mph 7 mph 26% 0.000 in 46.00 W/m2
18:24 91.0 °F 51.0 °F 29.9 in WSW 11 mph 16 mph 26% 0.000 in 42.00 W/m2
18:29 90.0 °F 51.0 °F 29.9 in SW 9 mph 10 mph 26% 0.000 in 40.00 W/m2
18:34 90.0 °F 51.0 °F 29.9 in SSW 9 mph 9 mph 27% 0.000 in 37.00 W/m2
18:39 89.0 °F 52.0 °F 29.9 in ESE 7 mph 9 mph 28% 0.000 in 33.00 W/m2
18:44 89.0 °F 51.0 °F 29.9 in SW 11 mph 7 mph 28% 0.000 in 32.00 W/m2
18:49 88.0 °F 51.0 °F 29.9 in East 9 mph 10 mph 28% 0.000 in 76.00 W/m2
18:54 88.0 °F 52.0 °F 29.9 in South 7 mph 7 mph 29% 0.000 in 74.00 W/m2
18:59 88.0 °F 52.0 °F 29.9 in WSW 6 mph 2 mph 29% 0.000 in 51.00 W/m2
19:04 87.0 °F 52.0 °F 29.9 in West 2 mph 6 mph 30% 0.000 in 54.00 W/m2
19:09 87.0 °F 53.0 °F 29.9 in East 2 mph 2 mph 31% 0.000 in 23.00 W/m2
19:13 87.0 °F 53.0 °F 29.9 in SSE 4 mph 2 mph 31% 0.000 in 21.00 W/m2
19:19 87.0 °F 51.0 °F 29.9 in SSW 4 mph 3 mph 30% 0.000 in 19.00 W/m2
19:24 86.0 °F 52.0 °F 29.9 in SSW 4 mph 2 mph 31% 0.000 in 18.00 W/m2
19:29 86.0 °F 52.0 °F 29.9 in SSW 2 mph 3 mph 31% 0.000 in 16.00 W/m2
19:34 86.0 °F 51.0 °F 29.9 in SSW 4 mph 3 mph 31% 0.000 in 14.00 W/m2
El Dorado Weather
Compliments of Weather Underground - 2 mb